Time;durP1;ratioP1;P1;durP2;ratioP2;P2;SDS_P1;SDS_P2;PMS_P1;PMS_P2;Temp;Humidity;BMP_temperature;BMP_pressure;BME280_temperature;BME280_humidity;BME280_pressure;Samples;Min_cycle;Max_cycle;Signal;HPM_P1;HPM_P2
2020/02/29 00:01:44;;;;;;;4.5;2.7;;;;;;;2.87;62.36816;933.9683;;;;
2020/02/29 00:04:03;;;;;;;7.5;4.2;;;;;;;2.8;61.81836;933.8155;;;;
2020/02/29 00:06:28;;;;;;;5.2;3.1;;;;;;;2.75;62.0918;933.9202;;;;
2020/02/29 00:08:53;;;;;;;4.5;2.8;;;;;;;2.77;61.16406;933.9719;;;;
2020/02/29 00:11:18;;;;;;;6.7;4.1;;;;;;;2.75;63.33691;934.0128;;;;
2020/02/29 00:13:44;;;;;;;9.3;4.3;;;;;;;2.89;63.78418;933.9695;;;;
2020/02/29 00:16:09;;;;;;;7.9;3.8;;;;;;;3.04;64.08789;933.9777;;;;
2020/02/29 00:18:34;;;;;;;10.9;6.1;;;;;;;3.05;63.86523;933.8805;;;;
2020/02/29 00:20:59;;;;;;;12.3;7.4;;;;;;;3.03;65.30957;934.0435;;;;
2020/02/29 00:23:24;;;;;;;13.7;7.2;;;;;;;3.05;63.15723;933.9275;;;;
2020/02/29 00:25:49;;;;;;;7.8;4.5;;;;;;;2.97;61.57422;933.9084;;;;
2020/02/29 00:28:14;;;;;;;7.9;4.8;;;;;;;2.96;63.11133;933.8256;;;;
2020/02/29 00:30:39;;;;;;;9.8;4.8;;;;;;;2.92;63.26172;933.8077;;;;
2020/02/29 00:33:05;;;;;;;9.6;4.1;;;;;;;2.98;63.02246;933.7568;;;;
2020/02/29 00:35:30;;;;;;;6.7;3.6;;;;;;;3.03;62.8291;933.6699;;;;
2020/02/29 00:37:55;;;;;;;5.6;3.3;;;;;;;3.06;62.08105;933.6281;;;;
2020/02/29 00:40:20;;;;;;;6.1;3.2;;;;;;;3.17;62.62598;933.6002;;;;
2020/02/29 00:42:45;;;;;;;5.5;3.3;;;;;;;3.22;64.02441;933.5765;;;;
2020/02/29 00:45:10;;;;;;;6;3.5;;;;;;;3.18;62.99707;933.5217;;;;
2020/02/29 00:47:35;;;;;;;4.7;3.3;;;;;;;3.17;64.41016;933.4853;;;;
2020/02/29 00:50:00;;;;;;;5;3.4;;;;;;;3.23;64.0918;933.4855;;;;
2020/02/29 00:52:25;;;;;;;8.2;3.9;;;;;;;3.31;64.09473;933.4558;;;;
2020/02/29 00:54:51;;;;;;;3.8;2.3;;;;;;;3.27;64.98633;933.4719;;;;
2020/02/29 00:57:16;;;;;;;3.8;2.2;;;;;;;3.18;65.07324;933.4344;;;;
2020/02/29 00:59:41;;;;;;;5.4;2.8;;;;;;;3.02;64.93652;933.4549;;;;
2020/02/29 01:02:07;;;;;;;4.8;3.3;;;;;;;2.94;65.02539;933.3869;;;;
2020/02/29 01:04:44;;;;;;;4.9;3.6;;;;;;;2.7;65.35938;933.3889;;;;
2020/02/29 01:07:02;;;;;;;6;3.9;;;;;;;2.69;65.84961;933.3508;;;;
2020/02/29 01:09:22;;;;;;;6.6;4.5;;;;;;;2.74;65.17383;933.2564;;;;
2020/02/29 01:11:47;;;;;;;7.3;3.7;;;;;;;2.78;64.86523;933.2032;;;;
2020/02/29 01:14:12;;;;;;;7.3;4.3;;;;;;;2.69;64.74023;933.1172;;;;
2020/02/29 01:16:37;;;;;;;9.7;4.8;;;;;;;2.53;65.50098;933.1443;;;;
2020/02/29 01:19:02;;;;;;;6.1;4.5;;;;;;;2.68;64.9082;933.0911;;;;
2020/02/29 01:21:27;;;;;;;6.8;4.2;;;;;;;2.74;64.45703;933.0536;;;;
2020/02/29 01:23:52;;;;;;;7.3;4;;;;;;;2.85;65.97559;933.0115;;;;
2020/02/29 01:26:17;;;;;;;5.3;3.5;;;;;;;2.89;66.40918;933.0176;;;;
2020/02/29 01:28:42;;;;;;;5.5;2.9;;;;;;;2.82;66.27246;932.9776;;;;
2020/02/29 01:31:07;;;;;;;4.2;2.8;;;;;;;2.86;67.30176;932.8491;;;;
2020/02/29 01:33:33;;;;;;;3.2;2.1;;;;;;;3.02;66.81055;932.8359;;;;
2020/02/29 01:35:58;;;;;;;7.3;2.3;;;;;;;3.03;66.4541;932.7286;;;;
2020/02/29 01:38:23;;;;;;;2.3;1.6;;;;;;;2.98;66.80469;932.8063;;;;
2020/02/29 01:40:48;;;;;;;3.1;1.8;;;;;;;2.97;67.13965;932.8571;;;;
2020/02/29 01:43:14;;;;;;;4.5;2.1;;;;;;;2.98;67.18555;932.7307;;;;
2020/02/29 01:45:39;;;;;;;3.4;2;;;;;;;3.12;66.27637;932.7122;;;;
2020/02/29 01:48:04;;;;;;;3.4;2;;;;;;;3.07;65.56055;932.7556;;;;
2020/02/29 01:50:29;;;;;;;4;2.2;;;;;;;3.13;66.1543;932.7297;;;;
2020/02/29 01:52:55;;;;;;;4;2.1;;;;;;;3.24;66.19434;932.6583;;;;
2020/02/29 01:55:20;;;;;;;5.1;2.6;;;;;;;3.23;65.86523;932.6437;;;;
2020/02/29 01:57:45;;;;;;;4.2;2.7;;;;;;;3.17;66.98047;932.5751;;;;
2020/02/29 02:00:10;;;;;;;8.3;3.2;;;;;;;3.28;66.40234;932.5399;;;;
2020/02/29 02:02:35;;;;;;;5.3;3.3;;;;;;;3.11;66.16211;932.4216;;;;
2020/02/29 02:05:00;;;;;;;6.1;3.5;;;;;;;3.22;66.06738;932.4012;;;;
2020/02/29 02:07:25;;;;;;;4.6;2.6;;;;;;;3.12;66.67969;932.4383;;;;
2020/02/29 02:09:50;;;;;;;4.2;2.9;;;;;;;2.92;66.33301;932.4246;;;;
2020/02/29 02:12:16;;;;;;;7;3.4;;;;;;;3.03;66.92383;932.2636;;;;
2020/02/29 02:14:41;;;;;;;6;3.1;;;;;;;3.11;66.4209;932.1644;;;;
2020/02/29 02:17:06;;;;;;;5;2.8;;;;;;;3.14;65.79785;932.1291;;;;
2020/02/29 02:19:31;;;;;;;5.3;3.1;;;;;;;3.1;65.94727;932.0597;;;;
2020/02/29 02:21:56;;;;;;;3.6;2.5;;;;;;;3.17;65.38672;932.0396;;;;
2020/02/29 02:24:21;;;;;;;6.3;3;;;;;;;3.08;65.5625;931.867;;;;
2020/02/29 02:26:47;;;;;;;5.8;2.8;;;;;;;3.04;65.91699;931.9078;;;;
2020/02/29 02:29:53;;;;;;;5.2;2.7;;;;;;;3.03;66.02734;931.8304;;;;
2020/02/29 02:32:03;;;;;;;4.2;2.5;;;;;;;2.69;66.67969;931.7843;;;;
2020/02/29 02:34:29;;;;;;;4;2.7;;;;;;;2.74;67.8877;931.7403;;;;
2020/02/29 02:36:54;;;;;;;5.2;2.6;;;;;;;2.78;67.24414;931.6548;;;;
2020/02/29 02:39:21;;;;;;;3.9;2.6;;;;;;;2.86;65.93359;931.5299;;;;
2020/02/29 02:41:44;;;;;;;4.4;2.5;;;;;;;2.76;66.1875;931.512;;;;
2020/02/29 02:44:09;;;;;;;3.5;2.5;;;;;;;2.75;65.85938;931.4819;;;;
2020/02/29 02:46:34;;;;;;;3.8;2.5;;;;;;;2.8;67.53711;931.3876;;;;
2020/02/29 02:48:59;;;;;;;3.4;2.4;;;;;;;2.93;67.18848;931.3713;;;;
2020/02/29 02:51:24;;;;;;;3.6;2.3;;;;;;;2.97;66.80176;931.3041;;;;
2020/02/29 02:53:50;;;;;;;3.5;2.2;;;;;;;2.86;66.77441;931.2478;;;;
2020/02/29 02:56:15;;;;;;;3.7;2.4;;;;;;;2.8;68.04199;931.2056;;;;
2020/02/29 02:58:41;;;;;;;3.7;2.5;;;;;;;2.82;68.83008;931.1954;;;;
2020/02/29 03:01:06;;;;;;;3.3;2.4;;;;;;;2.89;68.76465;931.2037;;;;
2020/02/29 03:03:31;;;;;;;4;2.7;;;;;;;3.05;68.56445;931.2292;;;;
2020/02/29 03:05:56;;;;;;;3.2;2.4;;;;;;;3.2;67.6582;931.0873;;;;
2020/02/29 03:08:22;;;;;;;4.8;2.6;;;;;;;3.27;68.42188;931.0817;;;;
2020/02/29 03:10:47;;;;;;;3.7;2.4;;;;;;;3.36;67.25586;931.1124;;;;
2020/02/29 03:13:12;;;;;;;4.8;2.3;;;;;;;3.41;66.94043;931.0699;;;;
2020/02/29 03:15:37;;;;;;;3.5;2.1;;;;;;;3.35;67.60352;931.0555;;;;
2020/02/29 03:18:02;;;;;;;4.5;2;;;;;;;3.36;67.27832;931.084;;;;
2020/02/29 03:20:27;;;;;;;3.9;2.2;;;;;;;3.34;66.19727;931.0158;;;;
2020/02/29 03:22:52;;;;;;;4.4;2.3;;;;;;;3.29;66.57031;931.0027;;;;
2020/02/29 03:25:18;;;;;;;3.1;2.2;;;;;;;3.31;66.49805;930.9397;;;;
2020/02/29 03:27:43;;;;;;;4.2;2.2;;;;;;;3.38;65.67578;930.853;;;;
2020/02/29 03:30:09;;;;;;;3.8;2.2;;;;;;;3.27;65.80566;930.841;;;;
2020/02/29 03:32:35;;;;;;;4.2;2.4;;;;;;;3.12;67.44336;930.9347;;;;
2020/02/29 03:35:00;;;;;;;4;2.4;;;;;;;3.3;66.54004;930.899;;;;
2020/02/29 03:37:25;;;;;;;4.7;2.3;;;;;;;3.38;67.31641;930.8461;;;;
2020/02/29 03:39:50;;;;;;;3.2;2.3;;;;;;;3.3;67.52832;930.8663;;;;
2020/02/29 03:42:15;;;;;;;5.4;2.3;;;;;;;3.25;67.69922;930.8485;;;;
2020/02/29 03:44:40;;;;;;;3.9;2.1;;;;;;;3.28;68.0625;930.8365;;;;
2020/02/29 03:47:05;;;;;;;7;3;;;;;;;3.15;68.00977;930.8183;;;;
2020/02/29 03:49:30;;;;;;;6.4;3.4;;;;;;;3.24;68.68555;930.7906;;;;
2020/02/29 03:51:56;;;;;;;6.8;2.8;;;;;;;3.17;68.88867;930.8273;;;;
2020/02/29 03:56:46;;;;;;;4.7;2.6;;;;;;;3.16;69.12207;930.7776;;;;
2020/02/29 03:59:11;;;;;;;4.4;2.4;;;;;;;3.19;69.50879;930.8175;;;;
2020/02/29 04:02:30;;;;;;;4.5;2.3;;;;;;;3.24;69.29102;930.753;;;;
2020/02/29 04:04:55;;;;;;;4.9;2.3;;;;;;;3.28;69.79297;930.7455;;;;
2020/02/29 04:07:20;;;;;;;5.4;2.7;;;;;;;3.35;69.52344;930.8431;;;;
2020/02/29 04:09:45;;;;;;;4.5;2.3;;;;;;;3.31;70.02344;930.7997;;;;
2020/02/29 04:12:10;;;;;;;3.7;2.1;;;;;;;3.46;69.32715;930.7617;;;;
2020/02/29 04:14:35;;;;;;;5.5;3.7;;;;;;;3.4;68.80176;930.7473;;;;
2020/02/29 04:17:00;;;;;;;8.9;7.3;;;;;;;3.38;69.33691;930.7194;;;;
2020/02/29 04:19:25;;;;;;;43.1;38.5;;;;;;;3.44;69.61523;930.7722;;;;
2020/02/29 04:21:50;;;;;;;23.1;19.6;;;;;;;3.47;69.75684;930.6117;;;;
2020/02/29 04:24:15;;;;;;;5.3;2.8;;;;;;;3.41;69.70117;930.6008;;;;
2020/02/29 04:26:41;;;;;;;4.6;2.8;;;;;;;3.39;69.63086;930.6488;;;;
2020/02/29 04:29:06;;;;;;;5.2;2.6;;;;;;;3.36;70.2666;930.5955;;;;
2020/02/29 04:31:31;;;;;;;4.6;2.6;;;;;;;3.32;70.48535;930.4481;;;;
2020/02/29 04:33:56;;;;;;;4;2.3;;;;;;;3.13;70.59961;930.5031;;;;
2020/02/29 04:36:21;;;;;;;4.2;2.3;;;;;;;3.22;70.82617;930.5369;;;;
2020/02/29 04:38:46;;;;;;;6.8;2.4;;;;;;;3.25;70.30273;930.3865;;;;
2020/02/29 04:41:11;;;;;;;6.3;2.9;;;;;;;3.11;70.94141;930.4482;;;;
2020/02/29 04:43:36;;;;;;;5.2;2.7;;;;;;;3.09;71.70313;930.4447;;;;
2020/02/29 04:46:01;;;;;;;8;2.8;;;;;;;3.07;71.85547;930.4553;;;;
2020/02/29 04:48:26;;;;;;;5;3;;;;;;;2.82;72.84375;930.4517;;;;
2020/02/29 04:50:51;;;;;;;9.4;4.6;;;;;;;2.82;73.13574;930.3401;;;;
2020/02/29 04:53:16;;;;;;;12.1;6.2;;;;;;;2.75;73.52832;930.2966;;;;
2020/02/29 04:55:41;;;;;;;10.6;4.9;;;;;;;2.66;74.01758;930.2085;;;;
2020/02/29 04:58:07;;;;;;;8.2;4.3;;;;;;;2.59;74.2959;930.1547;;;;
2020/02/29 05:00:32;;;;;;;6.7;3.3;;;;;;;2.56;74.56055;930.0872;;;;
2020/02/29 05:02:57;;;;;;;10.6;3.6;;;;;;;2.58;75.0791;930.1692;;;;
2020/02/29 05:05:22;;;;;;;6.2;2.8;;;;;;;2.44;75.44531;930.0549;;;;
2020/02/29 05:07:47;;;;;;;9.4;3.2;;;;;;;2.51;75.46973;929.9796;;;;
2020/02/29 05:10:12;;;;;;;8.4;3.4;;;;;;;2.58;74.57617;930.0578;;;;
2020/02/29 05:12:44;;;;;;;8.1;3;;;;;;;2.76;72.9248;929.9753;;;;
2020/02/29 05:15:03;;;;;;;7.3;2.4;;;;;;;2.89;71.50098;929.9734;;;;
2020/02/29 05:17:32;;;;;;;6.4;2.6;;;;;;;3.04;70.74121;929.9199;;;;
2020/02/29 05:19:53;;;;;;;8.2;2.7;;;;;;;3.18;70.59375;929.9002;;;;
2020/02/29 05:22:19;;;;;;;8;3.2;;;;;;;3.4;69.62109;929.8717;;;;
2020/02/29 05:24:44;;;;;;;6.2;2.6;;;;;;;3.57;68.97461;929.8922;;;;
2020/02/29 05:27:09;;;;;;;7.1;2.5;;;;;;;3.7;68.90723;929.8583;;;;
2020/02/29 05:29:34;;;;;;;5.9;2.2;;;;;;;3.86;69.21289;929.7683;;;;
2020/02/29 05:31:59;;;;;;;6.6;2.4;;;;;;;3.89;69.21875;929.7477;;;;
2020/02/29 05:34:25;;;;;;;6.7;2.4;;;;;;;4.06;68.89648;929.8237;;;;
2020/02/29 05:36:49;;;;;;;5.9;2;;;;;;;4.1;69.24121;929.6576;;;;
2020/02/29 05:39:14;;;;;;;6.6;2.2;;;;;;;3.81;69.26074;929.7003;;;;
2020/02/29 05:41:39;;;;;;;4.7;2.2;;;;;;;3.79;68.08887;929.6287;;;;
2020/02/29 05:44:05;;;;;;;6.1;2.7;;;;;;;3.68;68.74512;929.6295;;;;
2020/02/29 05:46:30;;;;;;;11.5;4;;;;;;;3.62;69.16406;929.567;;;;
2020/02/29 05:48:55;;;;;;;10.2;5.8;;;;;;;3.43;69.91699;929.5524;;;;
2020/02/29 05:51:21;;;;;;;12.6;6.4;;;;;;;3.37;70.57129;929.5563;;;;
2020/02/29 05:53:46;;;;;;;11;6.3;;;;;;;3.29;71.28711;929.4963;;;;
2020/02/29 05:56:11;;;;;;;11.5;5.6;;;;;;;3.44;71.41211;929.5092;;;;
2020/02/29 05:58:36;;;;;;;10.1;3.9;;;;;;;3.65;67.3252;929.5692;;;;
2020/02/29 06:01:01;;;;;;;12.6;5.9;;;;;;;3.83;68.36523;929.5181;;;;
2020/02/29 06:03:26;;;;;;;10.3;4.7;;;;;;;3.91;68.14258;929.6008;;;;
2020/02/29 06:05:52;;;;;;;10.2;4.3;;;;;;;3.9;69.33105;929.6429;;;;
2020/02/29 06:08:18;;;;;;;5.8;2.9;;;;;;;3.91;69.44629;929.6024;;;;
2020/02/29 06:10:43;;;;;;;6.4;2.6;;;;;;;3.95;68.61035;929.6355;;;;
2020/02/29 06:13:08;;;;;;;6.1;2.5;;;;;;;3.83;68.75879;929.6149;;;;
2020/02/29 06:15:33;;;;;;;6.1;3.4;;;;;;;3.9;67.83594;929.4785;;;;
2020/02/29 06:17:59;;;;;;;11.3;4.3;;;;;;;3.95;68.78906;929.474;;;;
2020/02/29 06:20:24;;;;;;;10.3;4.1;;;;;;;3.95;69.47461;929.4669;;;;
2020/02/29 06:22:49;;;;;;;9.7;5.1;;;;;;;3.96;70.16211;929.4215;;;;
2020/02/29 06:25:14;;;;;;;5.7;2.8;;;;;;;3.8;70.4502;929.414;;;;
2020/02/29 06:27:39;;;;;;;6.2;2.8;;;;;;;3.92;69.67285;929.371;;;;
2020/02/29 06:30:05;;;;;;;7;2.3;;;;;;;4.11;68.6582;929.3544;;;;
2020/02/29 06:32:30;;;;;;;6.2;2.3;;;;;;;4.29;68.73242;929.3077;;;;
2020/02/29 06:34:56;;;;;;;6.9;3;;;;;;;4.36;67.75195;929.2986;;;;
2020/02/29 06:37:21;;;;;;;8.8;4.5;;;;;;;4.3;68.42969;929.2449;;;;
2020/02/29 06:39:49;;;;;;;17.2;8.5;;;;;;;4.31;68.36328;929.1316;;;;
2020/02/29 06:42:11;;;;;;;16.8;8;;;;;;;4.33;68.34375;929.1736;;;;
2020/02/29 06:44:36;;;;;;;14.5;7.3;;;;;;;4.42;67.91992;929.114;;;;
2020/02/29 06:47:01;;;;;;;13.4;7.5;;;;;;;4.39;68.12793;929.11;;;;
2020/02/29 06:49:27;;;;;;;11.3;6.8;;;;;;;4.35;68.07715;929.025;;;;
2020/02/29 06:51:52;;;;;;;14.5;6;;;;;;;4.35;67.69531;929.0361;;;;
2020/02/29 06:54:19;;;;;;;11.9;4.8;;;;;;;4.37;67.13477;929.0025;;;;
2020/02/29 06:59:12;;;;;;;13.5;3.7;;;;;;;4.87;64.5332;928.9217;;;;
2020/02/29 07:01:35;;;;;;;8.1;3.3;;;;;;;5.13;64.09863;928.9614;;;;
2020/02/29 07:04:02;;;;;;;9.5;3.5;;;;;;;5.37;62.92676;928.8552;;;;
2020/02/29 07:06:27;;;;;;;8.4;3.2;;;;;;;5.54;62.7373;928.9517;;;;
2020/02/29 07:08:52;;;;;;;13.2;4;;;;;;;5.58;62.48438;928.942;;;;
2020/02/29 07:11:18;;;;;;;13.9;5.5;;;;;;;5.58;63.4082;928.9048;;;;
2020/02/29 07:13:43;;;;;;;13.2;5.4;;;;;;;5.63;63.48438;928.8828;;;;
2020/02/29 07:16:08;;;;;;;25.8;5.6;;;;;;;5.56;63.36035;928.7679;;;;
2020/02/29 07:18:33;;;;;;;10.8;4.9;;;;;;;5.54;64.33984;928.834;;;;
2020/02/29 07:20:58;;;;;;;8.2;3;;;;;;;5.52;60.61328;928.8141;;;;
2020/02/29 07:23:23;;;;;;;8.7;2.9;;;;;;;5.73;59.95313;928.8098;;;;
2020/02/29 07:25:49;;;;;;;9.2;2.6;;;;;;;5.75;57.49512;928.7194;;;;
2020/02/29 07:28:15;;;;;;;11.8;3;;;;;;;5.92;58.00391;928.8387;;;;
2020/02/29 07:30:40;;;;;;;8.9;2.9;;;;;;;5.95;57.64551;928.6408;;;;
2020/02/29 07:33:05;;;;;;;6.5;2.9;;;;;;;6.19;56.33496;928.5527;;;;
2020/02/29 07:35:30;;;;;;;8.9;3.2;;;;;;;6.37;56.73047;928.5792;;;;
2020/02/29 07:37:55;;;;;;;9.7;5.6;;;;;;;6.42;58.03809;928.4835;;;;
2020/02/29 07:40:21;;;;;;;7.2;4.7;;;;;;;6.57;59.08691;928.3298;;;;
2020/02/29 07:42:46;;;;;;;12.8;7;;;;;;;6.49;56.38477;928.3442;;;;
2020/02/29 07:45:11;;;;;;;16.8;9;;;;;;;6.51;56.22754;928.3055;;;;
2020/02/29 07:47:37;;;;;;;24.2;12.5;;;;;;;6.61;53.83203;928.3036;;;;
2020/02/29 07:50:02;;;;;;;19.1;8.4;;;;;;;6.86;54.76855;928.3128;;;;
2020/02/29 07:52:27;;;;;;;14.4;7.1;;;;;;;7.09;51.58203;928.2228;;;;
2020/02/29 07:54:52;;;;;;;15.5;5.6;;;;;;;7.49;50.91504;928.1248;;;;
2020/02/29 07:57:17;;;;;;;8.9;4.3;;;;;;;7.77;50.6543;928.0446;;;;
2020/02/29 07:59:42;;;;;;;11;4;;;;;;;8.15;50.8916;927.9352;;;;
2020/02/29 08:02:07;;;;;;;17.3;3.8;;;;;;;8.34;50.51563;927.89;;;;
2020/02/29 08:04:33;;;;;;;21.3;9.1;;;;;;;8.49;50.27246;927.8467;;;;
2020/02/29 08:06:58;;;;;;;10.9;5;;;;;;;8.58;50.1123;927.8864;;;;
2020/02/29 08:09:23;;;;;;;9.8;4.8;;;;;;;8.57;47.45215;927.8142;;;;
2020/02/29 08:11:48;;;;;;;14.3;7.6;;;;;;;8.72;47.41113;927.8303;;;;
2020/02/29 08:14:13;;;;;;;13.1;6.9;;;;;;;8.81;43.87207;927.6873;;;;
2020/02/29 08:16:39;;;;;;;13.7;6.3;;;;;;;8.93;43.33887;927.6573;;;;
2020/02/29 08:19:04;;;;;;;9.2;4.3;;;;;;;8.89;41.50391;927.5955;;;;
2020/02/29 08:21:29;;;;;;;5.8;2.5;;;;;;;8.9;40.50391;927.551;;;;
2020/02/29 08:23:54;;;;;;;8.2;2.1;;;;;;;9.06;41.21387;927.527;;;;
2020/02/29 08:26:19;;;;;;;11.3;2.6;;;;;;;9.26;40.77734;927.5148;;;;
2020/02/29 08:28:44;;;;;;;10.2;2.1;;;;;;;9.38;41.37012;927.5026;;;;
2020/02/29 08:31:09;;;;;;;8.9;2.2;;;;;;;9.35;41.29785;927.49;;;;
2020/02/29 08:33:34;;;;;;;11.8;2.9;;;;;;;9.47;43.13086;927.3937;;;;
2020/02/29 08:35:59;;;;;;;8.4;3.9;;;;;;;9.47;43.37109;927.454;;;;
2020/02/29 08:38:24;;;;;;;14.4;2.6;;;;;;;9.35;43.19922;927.4709;;;;
2020/02/29 08:40:49;;;;;;;10.7;2.8;;;;;;;9.44;43.6416;927.2531;;;;
2020/02/29 08:43:15;;;;;;;10.6;3;;;;;;;9.34;44.21094;927.1802;;;;
2020/02/29 08:45:40;;;;;;;5.7;1.8;;;;;;;9.18;44.22949;927.0645;;;;
2020/02/29 08:48:05;;;;;;;12;2.3;;;;;;;9.14;46.69531;927.0695;;;;
2020/02/29 08:50:30;;;;;;;6.9;2.3;;;;;;;9.38;47.43945;927.1117;;;;
2020/02/29 08:52:55;;;;;;;11.5;3.7;;;;;;;9.73;49.06152;927.093;;;;
2020/02/29 08:55:20;;;;;;;11.5;3.8;;;;;;;9.87;48.47266;927.0234;;;;
2020/02/29 08:57:45;;;;;;;12.1;4.1;;;;;;;9.83;46.75879;926.9576;;;;
2020/02/29 09:00:10;;;;;;;12;5.3;;;;;;;10.05;46.47363;926.9413;;;;
2020/02/29 09:02:35;;;;;;;17.4;5.9;;;;;;;10.1;46.69629;926.871;;;;
2020/02/29 09:05:01;;;;;;;17.1;6.4;;;;;;;10.14;44.95605;926.788;;;;
2020/02/29 09:07:26;;;;;;;17.6;6.8;;;;;;;10.37;45.84668;926.7859;;;;
2020/02/29 09:09:51;;;;;;;23.6;8.7;;;;;;;10.53;44.8584;926.7944;;;;
2020/02/29 09:12:17;;;;;;;24;8.1;;;;;;;10.74;45.26953;926.7584;;;;
2020/02/29 09:14:42;;;;;;;19.4;6.4;;;;;;;10.83;46.23828;926.6797;;;;
2020/02/29 09:17:07;;;;;;;9.3;4;;;;;;;10.9;40.29199;926.6336;;;;
2020/02/29 09:19:32;;;;;;;12.8;4.6;;;;;;;10.89;42.2334;926.5461;;;;
2020/02/29 09:21:58;;;;;;;8.6;3.3;;;;;;;10.97;40.66406;926.4847;;;;
2020/02/29 09:24:23;;;;;;;16.2;4.7;;;;;;;11.18;43.28027;926.3845;;;;
2020/02/29 09:26:48;;;;;;;14.3;4.5;;;;;;;11.34;41.60352;926.4402;;;;
2020/02/29 09:29:13;;;;;;;14.5;5.3;;;;;;;11.54;42.37793;926.4363;;;;
2020/02/29 09:31:38;;;;;;;15.1;5.1;;;;;;;11.63;41.21875;926.3667;;;;
2020/02/29 09:34:04;;;;;;;7.8;2.7;;;;;;;11.75;39.79883;926.3187;;;;
2020/02/29 09:36:29;;;;;;;7.8;2.7;;;;;;;11.8;38.99121;926.3112;;;;
2020/02/29 09:38:54;;;;;;;5.4;1.6;;;;;;;11.62;37.7041;926.2473;;;;
2020/02/29 09:41:19;;;;;;;8.2;1.7;;;;;;;11.64;39.67383;926.2519;;;;
2020/02/29 09:43:45;;;;;;;7.3;1.7;;;;;;;11.79;38.95605;926.2004;;;;
2020/02/29 09:46:10;;;;;;;7.1;2.2;;;;;;;12.17;38.93164;926.1808;;;;
2020/02/29 09:48:35;;;;;;;6.8;1.7;;;;;;;12.1;38.06641;926.122;;;;
2020/02/29 09:51:00;;;;;;;9.1;1.9;;;;;;;12.06;38.44043;926.1316;;;;
2020/02/29 09:53:25;;;;;;;11.9;5.5;;;;;;;11.88;38.64258;926.0998;;;;
2020/02/29 09:55:50;;;;;;;9.9;3.1;;;;;;;12.14;39.65137;926.0018;;;;
2020/02/29 09:58:17;;;;;;;8.1;3.1;;;;;;;11.95;38.84277;926.0245;;;;
2020/02/29 10:00:41;;;;;;;110.8;78.5;;;;;;;12.06;38.93359;926.0015;;;;
2020/02/29 10:03:06;;;;;;;9.4;2.4;;;;;;;12.15;39.64063;925.937;;;;
2020/02/29 10:05:31;;;;;;;13.2;3.6;;;;;;;12.36;39.44238;925.9128;;;;
2020/02/29 10:07:56;;;;;;;7.9;3.7;;;;;;;12.25;38.05664;925.8861;;;;
2020/02/29 10:10:22;;;;;;;5.9;1.8;;;;;;;12.41;40.1123;925.7388;;;;
2020/02/29 10:12:48;;;;;;;11.9;7.1;;;;;;;12.64;37.73438;925.7408;;;;
2020/02/29 10:15:13;;;;;;;8.3;2.6;;;;;;;12.6;37.19238;925.6541;;;;
2020/02/29 10:17:39;;;;;;;13.7;6.5;;;;;;;12.61;39.30469;925.5887;;;;
2020/02/29 10:20:04;;;;;;;34.2;19.3;;;;;;;12.76;38.77832;925.4789;;;;
2020/02/29 10:22:29;;;;;;;51.5;27.2;;;;;;;12.89;37.8252;925.4871;;;;
2020/02/29 10:24:54;;;;;;;226.6;118.2;;;;;;;13.11;38.51074;925.418;;;;
2020/02/29 10:27:20;;;;;;;321;145.9;;;;;;;13.15;36.02246;925.4395;;;;
2020/02/29 10:29:45;;;;;;;157.2;92.5;;;;;;;13.05;36.20801;925.4402;;;;
2020/02/29 10:32:10;;;;;;;65.5;34.6;;;;;;;12.84;35.61816;925.4033;;;;
2020/02/29 10:34:35;;;;;;;94.1;49.6;;;;;;;12.68;35.43262;925.3558;;;;
2020/02/29 10:37:00;;;;;;;14.5;6.3;;;;;;;12.98;36.91504;925.3086;;;;
2020/02/29 10:39:25;;;;;;;20.2;10.2;;;;;;;13.33;35.19727;925.1534;;;;
2020/02/29 10:41:50;;;;;;;144.8;69;;;;;;;13.41;36.16992;925.1355;;;;
2020/02/29 10:44:15;;;;;;;11.2;4.2;;;;;;;13.5;34.13086;925.1133;;;;
2020/02/29 10:46:41;;;;;;;40;18.5;;;;;;;13.69;34.56055;925.1111;;;;
2020/02/29 10:49:06;;;;;;;211.1;113.3;;;;;;;13.46;33.65625;925.1555;;;;
2020/02/29 10:51:32;;;;;;;47.1;21.3;;;;;;;13.43;33.76953;925.0555;;;;
2020/02/29 10:53:57;;;;;;;76.1;40.1;;;;;;;13.51;33.48828;925.0248;;;;
2020/02/29 10:56:22;;;;;;;41.7;20;;;;;;;13.67;34.50098;924.9526;;;;
2020/02/29 10:58:47;;;;;;;27.8;10.7;;;;;;;14.08;34.00391;924.9221;;;;
2020/02/29 11:01:14;;;;;;;120.2;53.6;;;;;;;14.11;32.87793;924.8702;;;;
2020/02/29 11:03:37;;;;;;;98.6;46.8;;;;;;;13.96;33.04004;924.9175;;;;
2020/02/29 11:06:03;;;;;;;16.8;7.7;;;;;;;14.09;34.09766;924.8194;;;;
2020/02/29 11:08:28;;;;;;;11.2;4.3;;;;;;;14.02;32.53711;924.7589;;;;
2020/02/29 11:10:53;;;;;;;301.5;149;;;;;;;14.02;34.22949;924.5452;;;;
2020/02/29 11:13:18;;;;;;;26.2;23.4;;;;;;;13.9;32.89648;924.5062;;;;
2020/02/29 11:15:43;;;;;;;12;7.3;;;;;;;14.01;32.97363;924.4097;;;;
2020/02/29 11:18:08;;;;;;;8.1;2.6;;;;;;;13.68;33.19141;924.3466;;;;
2020/02/29 11:20:33;;;;;;;13.9;4.1;;;;;;;13.68;33.31641;924.3691;;;;
2020/02/29 11:22:58;;;;;;;7.6;2.6;;;;;;;13.74;34.06934;924.3301;;;;
2020/02/29 11:25:23;;;;;;;7.5;2.8;;;;;;;13.75;34.42676;924.141;;;;
2020/02/29 11:27:49;;;;;;;7;2.1;;;;;;;13.9;33.94434;924.0405;;;;
2020/02/29 11:30:14;;;;;;;7.2;1.9;;;;;;;14.38;34.17676;923.9056;;;;
2020/02/29 11:32:39;;;;;;;7.3;2.1;;;;;;;15.14;31.13281;923.9254;;;;
2020/02/29 11:35:04;;;;;;;11.3;2.1;;;;;;;15.81;29.57324;923.782;;;;
2020/02/29 11:37:29;;;;;;;7.9;2.3;;;;;;;15.84;30.39648;923.704;;;;
2020/02/29 11:39:54;;;;;;;5.7;2.2;;;;;;;15.68;30.4082;923.6733;;;;
2020/02/29 11:42:19;;;;;;;8.6;2.2;;;;;;;15.74;30.50488;923.6144;;;;
2020/02/29 11:44:44;;;;;;;10.5;2.4;;;;;;;16.71;31.24512;923.5706;;;;
2020/02/29 11:47:09;;;;;;;8.9;2.2;;;;;;;17.4;27.58203;923.4095;;;;
2020/02/29 11:49:34;;;;;;;7.3;2.2;;;;;;;16.98;28.19238;923.3502;;;;
2020/02/29 11:52:00;;;;;;;8.2;2.1;;;;;;;16.3;29.09766;923.1602;;;;
2020/02/29 11:54:25;;;;;;;7.9;2.5;;;;;;;16.85;27.50098;923.1757;;;;
2020/02/29 11:56:50;;;;;;;6.7;2.4;;;;;;;16.64;27.91602;923.1835;;;;
2020/02/29 11:59:15;;;;;;;10.9;3.1;;;;;;;16.8;28.25098;922.9718;;;;
2020/02/29 12:01:40;;;;;;;9.1;2.4;;;;;;;16.69;28.25488;923.0396;;;;
2020/02/29 12:04:05;;;;;;;10.2;2.4;;;;;;;17.36;27.60254;922.9783;;;;
2020/02/29 12:06:30;;;;;;;9;2.5;;;;;;;18.4;25.98242;922.8193;;;;
2020/02/29 12:08:55;;;;;;;12;2.1;;;;;;;18.65;25.49707;922.8834;;;;
2020/02/29 12:11:20;;;;;;;10;2.8;;;;;;;18.68;27.73145;922.7888;;;;
2020/02/29 12:13:46;;;;;;;9.5;2.5;;;;;;;18.49;27.20801;922.8161;;;;
2020/02/29 12:16:11;;;;;;;11.4;3.4;;;;;;;18.37;26.17773;922.7665;;;;
2020/02/29 12:18:36;;;;;;;7.9;2.5;;;;;;;17.9;26.23145;922.4824;;;;
2020/02/29 12:21:01;;;;;;;8.9;2.6;;;;;;;17.7;26.75391;922.4449;;;;
2020/02/29 12:23:26;;;;;;;10.1;3.1;;;;;;;17.4;28.67285;922.5792;;;;
2020/02/29 12:25:51;;;;;;;10.3;2.4;;;;;;;17.71;27.6709;922.5966;;;;
2020/02/29 12:28:16;;;;;;;11.2;2.6;;;;;;;17.44;28.51172;922.4402;;;;
2020/02/29 12:30:41;;;;;;;12.1;2.5;;;;;;;16.82;27.16309;922.4431;;;;
2020/02/29 12:33:06;;;;;;;15.1;2.6;;;;;;;16.65;28.68066;922.5305;;;;
2020/02/29 12:35:31;;;;;;;9.8;2.4;;;;;;;16.36;28.43066;922.5066;;;;
2020/02/29 12:37:56;;;;;;;16;3;;;;;;;16.18;28.22168;922.493;;;;
2020/02/29 12:40:22;;;;;;;11.9;2.3;;;;;;;16.27;27.99707;922.4205;;;;
2020/02/29 12:42:47;;;;;;;13.1;2.8;;;;;;;16.35;29.12402;922.613;;;;
2020/02/29 12:45:12;;;;;;;13.3;2.6;;;;;;;16.26;28.71387;922.437;;;;
2020/02/29 12:47:37;;;;;;;9.9;2.4;;;;;;;16.53;28.03711;922.4109;;;;
2020/02/29 12:50:02;;;;;;;16.2;2.5;;;;;;;16.27;27.61523;922.5162;;;;
2020/02/29 12:52:27;;;;;;;12.1;2.4;;;;;;;15.41;28.50781;922.4205;;;;
2020/02/29 12:54:52;;;;;;;15.8;3.4;;;;;;;15.16;29.71387;922.4117;;;;
2020/02/29 12:57:17;;;;;;;12.7;2.8;;;;;;;15.01;29.78516;922.5359;;;;
2020/02/29 12:59:42;;;;;;;10.4;2.5;;;;;;;14.94;29.76855;922.4068;;;;
2020/02/29 13:02:07;;;;;;;12.6;2.4;;;;;;;14.74;29.5127;922.3939;;;;
2020/02/29 13:04:33;;;;;;;11.6;2.4;;;;;;;14.78;30.4043;922.3123;;;;
2020/02/29 13:06:58;;;;;;;10.7;2.5;;;;;;;14.78;29.97754;922.4317;;;;
2020/02/29 13:09:23;;;;;;;16;3;;;;;;;14.89;30.00684;922.3306;;;;
2020/02/29 13:11:48;;;;;;;12.6;2.5;;;;;;;14.72;29.38477;922.2968;;;;
2020/02/29 13:14:13;;;;;;;12.7;2.8;;;;;;;14.68;30.89258;922.3147;;;;
2020/02/29 13:16:38;;;;;;;14.5;2.6;;;;;;;14.51;30.06152;922.1813;;;;
2020/02/29 13:19:03;;;;;;;17.3;2.7;;;;;;;14.29;30.66895;922.3086;;;;
2020/02/29 13:21:28;;;;;;;12.6;2.4;;;;;;;14.5;29.66992;922.4948;;;;
2020/02/29 13:23:53;;;;;;;8.9;2.4;;;;;;;14.62;29.38965;922.4127;;;;
2020/02/29 13:26:19;;;;;;;10.3;2.8;;;;;;;14.59;29.49219;922.5134;;;;
2020/02/29 13:28:44;;;;;;;12.3;2.4;;;;;;;14.55;29.46582;922.397;;;;
2020/02/29 13:31:09;;;;;;;18;2.6;;;;;;;14.65;30.34863;922.3967;;;;
2020/02/29 13:33:34;;;;;;;11;2.5;;;;;;;14.7;30.52441;922.3879;;;;
2020/02/29 13:35:59;;;;;;;12.4;3.8;;;;;;;14.67;29.41602;922.493;;;;
2020/02/29 13:38:24;;;;;;;11.7;2.9;;;;;;;14.64;29.81738;922.3945;;;;
2020/02/29 13:40:49;;;;;;;12.2;2.8;;;;;;;14.69;30.33984;922.5355;;;;
2020/02/29 13:43:14;;;;;;;8.3;2.1;;;;;;;14.58;29.19043;922.5043;;;;
2020/02/29 13:45:39;;;;;;;13.3;2.7;;;;;;;14.61;30.05664;922.6228;;;;
2020/02/29 13:48:04;;;;;;;13;2.7;;;;;;;14.65;30.82031;922.5891;;;;
2020/02/29 13:50:30;;;;;;;8.7;2.7;;;;;;;14.53;30.0166;922.691;;;;
2020/02/29 13:52:55;;;;;;;14.1;2.5;;;;;;;14.68;30.17773;922.6234;;;;
2020/02/29 13:55:20;;;;;;;11.7;2.4;;;;;;;14.76;30.36719;922.6231;;;;
2020/02/29 13:57:45;;;;;;;8.3;2.3;;;;;;;14.76;29.16797;922.6464;;;;
2020/02/29 14:00:10;;;;;;;12.7;2.4;;;;;;;14.64;31.12012;922.437;;;;
2020/02/29 14:02:35;;;;;;;10.5;2.6;;;;;;;14.53;32.18359;922.6317;;;;
2020/02/29 14:05:01;;;;;;;9.5;2.6;;;;;;;14.77;32.07422;922.6092;;;;
2020/02/29 14:07:26;;;;;;;9.5;2.7;;;;;;;14.78;30.56445;922.5577;;;;
2020/02/29 14:09:51;;;;;;;16.9;3;;;;;;;14.95;30.78418;922.7584;;;;
2020/02/29 14:12:17;;;;;;;10.3;2.7;;;;;;;14.74;30.03125;922.627;;;;
2020/02/29 14:14:42;;;;;;;10.9;2.2;;;;;;;14.59;29.7334;922.4247;;;;
2020/02/29 14:17:07;;;;;;;9.3;2.4;;;;;;;14.64;31.11914;922.4924;;;;
2020/02/29 14:19:32;;;;;;;9.7;2.2;;;;;;;15.28;29.26074;922.502;;;;